createdAt,value
2022-10-19T00:04:30.463Z,2.38
2022-10-19T00:09:32.086Z,2.80
2022-10-19T00:14:35.769Z,1.75
2022-10-19T00:19:39.341Z,2.10
2022-10-19T00:24:41.203Z,2.17
2022-10-19T00:29:42.574Z,1.83
2022-10-19T00:34:44.015Z,2.05
2022-10-19T00:39:45.477Z,1.90
2022-10-19T00:44:46.872Z,1.75
2022-10-19T00:49:48.512Z,1.73
2022-10-19T00:54:51.779Z,1.92
2022-10-19T00:59:53.670Z,1.30
2022-10-19T01:04:55.629Z,1.35
2022-10-19T01:09:57.252Z,2.05
2022-10-19T01:15:17.272Z,1.52
2022-10-19T01:20:18.648Z,4.60
2022-10-19T01:25:33.094Z,1.83
2022-10-19T01:30:51.686Z,2.13
2022-10-19T01:36:32.025Z,1.90
2022-10-19T01:41:43.301Z,1.95
2022-10-19T01:46:52.451Z,2.03
2022-10-19T01:52:03.218Z,2.65
2022-10-19T01:57:07.658Z,2.05
2022-10-19T02:02:10.561Z,2.78
2022-10-19T02:07:12.749Z,1.67
2022-10-19T02:12:16.075Z,1.40
2022-10-19T02:17:22.381Z,1.70
2022-10-19T02:22:24.074Z,2.25
2022-10-19T02:27:26.174Z,1.55
2022-10-19T02:32:28.169Z,1.52
2022-10-19T02:37:29.633Z,1.90
2022-10-19T02:42:40.171Z,2.08
2022-10-19T02:48:22.470Z,2.35
2022-10-19T02:53:23.948Z,1.33
2022-10-19T02:58:25.333Z,1.48
2022-10-19T03:03:26.750Z,2.28
2022-10-19T03:08:28.134Z,2.20
2022-10-19T03:13:29.533Z,1.83
2022-10-19T03:18:30.913Z,2.00
2022-10-19T03:23:32.365Z,1.98
2022-10-19T03:28:34.178Z,2.20
2022-10-19T03:33:35.589Z,2.17
2022-10-19T03:38:37.013Z,2.72
2022-10-19T03:43:38.576Z,1.73
2022-10-19T03:48:40.260Z,2.08
2022-10-19T03:53:42.170Z,2.40
2022-10-19T03:58:45.645Z,2.22
2022-10-19T04:03:47.185Z,2.08
2022-10-19T04:08:49.985Z,2.78
2022-10-19T04:13:56.637Z,1.90
2022-10-19T04:18:58.348Z,1.67
2022-10-19T04:24:05.613Z,1.80
2022-10-19T04:29:07.078Z,1.58
2022-10-19T04:34:08.814Z,1.80
2022-10-19T04:39:10.445Z,1.85
2022-10-19T04:44:11.963Z,1.83
2022-10-19T04:49:16.438Z,2.42
2022-10-19T04:54:20.888Z,2.17
2022-10-19T04:59:22.306Z,2.10
2022-10-19T05:04:23.745Z,2.10
2022-10-19T05:09:25.340Z,2.42
2022-10-19T05:19:29.222Z,2.47
2022-10-19T05:24:32.533Z,2.00
2022-10-19T05:29:33.961Z,2.13
2022-10-19T05:34:35.366Z,2.45
2022-10-19T05:39:36.817Z,2.17
2022-10-19T05:49:44.604Z,2.63
2022-10-19T05:54:46.036Z,2.25
2022-10-19T05:59:47.457Z,2.78
2022-10-19T06:04:48.861Z,2.28
2022-10-19T06:09:50.250Z,2.60
2022-10-19T06:14:51.810Z,2.80
2022-10-19T06:19:53.201Z,2.28
2022-10-19T06:24:55.396Z,2.42
2022-10-19T06:29:56.844Z,2.38
2022-10-19T06:34:58.246Z,2.00
2022-10-19T06:40:07.187Z,2.00
2022-10-19T06:45:10.099Z,2.53
2022-10-19T06:50:11.700Z,2.83
2022-10-19T06:55:13.190Z,2.45
2022-10-19T07:00:14.971Z,2.55
2022-10-19T07:05:16.405Z,2.55
2022-10-19T07:10:18.040Z,3.00
2022-10-19T07:15:19.434Z,3.15
2022-10-19T07:20:20.910Z,5.00
2022-10-19T07:25:22.320Z,4.28
2022-10-19T07:30:23.858Z,4.47
2022-10-19T07:35:25.277Z,4.93
2022-10-19T07:40:26.656Z,4.95
2022-10-19T07:45:28.156Z,4.78
2022-10-19T07:50:29.570Z,5.82
2022-10-19T07:55:30.937Z,6.97
2022-10-19T08:00:33.062Z,6.15
2022-10-19T08:05:34.919Z,6.65
2022-10-19T08:10:36.446Z,6.13
2022-10-19T08:15:37.870Z,5.75
2022-10-19T08:20:44.059Z,6.22
2022-10-19T08:25:45.460Z,5.00
2022-10-19T08:30:46.865Z,4.80
2022-10-19T08:35:48.259Z,4.63
2022-10-19T08:40:49.733Z,5.47
2022-10-19T09:05:38.165Z,5.32
2022-10-19T09:10:47.874Z,4.60
2022-10-19T09:15:55.273Z,5.13
2022-10-19T09:21:16.817Z,4.07
2022-10-19T09:26:21.668Z,2.78
2022-10-19T09:31:40.721Z,2.45
2022-10-19T09:36:50.547Z,2.92
2022-10-19T09:41:57.328Z,2.45
2022-10-19T09:47:14.229Z,1.85
2022-10-19T09:52:50.422Z,2.13
2022-10-19T09:58:00.473Z,2.15
2022-10-19T10:03:04.347Z,1.58
2022-10-19T10:08:27.616Z,1.65
2022-10-19T10:13:32.315Z,2.17
2022-10-19T10:18:54.879Z,2.88
2022-10-19T10:24:30.026Z,2.28
2022-10-19T10:29:47.332Z,1.85
2022-10-19T10:35:22.303Z,2.65
2022-10-19T10:40:33.510Z,2.00
2022-10-19T10:46:08.634Z,1.95
2022-10-19T10:51:52.203Z,2.35
2022-10-19T10:57:12.322Z,3.03
2022-10-19T11:02:48.289Z,2.78
2022-10-19T11:08:27.849Z,2.67
2022-10-19T11:13:42.663Z,2.83
2022-10-19T11:19:07.334Z,3.05
2022-10-19T11:24:49.539Z,2.05
2022-10-19T11:30:01.171Z,1.05
2022-10-19T11:35:32.126Z,2.00
2022-10-19T11:41:17.751Z,1.95
2022-10-19T11:46:37.523Z,2.38
2022-10-19T11:51:54.849Z,1.83
2022-10-19T11:57:11.501Z,1.40
2022-10-19T12:02:52.711Z,1.98
2022-10-19T12:08:35.376Z,1.80
2022-10-19T12:13:57.999Z,2.13
2022-10-19T12:19:03.250Z,1.80
2022-10-19T12:24:15.879Z,1.77
2022-10-19T12:29:40.714Z,2.05
2022-10-19T12:35:07.610Z,2.13
2022-10-19T12:40:23.467Z,1.58
2022-10-19T12:45:44.182Z,1.83
2022-10-19T12:50:48.658Z,1.70
2022-10-19T12:56:04.040Z,2.15
2022-10-19T13:01:07.362Z,1.60
2022-10-19T13:06:17.903Z,2.00
2022-10-19T13:11:20.551Z,1.80
2022-10-19T13:16:37.007Z,2.00
2022-10-19T13:21:45.831Z,1.45
2022-10-19T13:26:47.273Z,1.60
2022-10-19T13:31:48.761Z,1.50
2022-10-19T13:37:03.641Z,1.70
2022-10-19T13:42:05.068Z,1.05
2022-10-19T13:47:33.505Z,1.52
2022-10-19T13:52:51.084Z,1.85
2022-10-19T13:58:14.112Z,1.30
2022-10-19T14:03:54.499Z,2.05
2022-10-19T14:09:17.734Z,1.50
2022-10-19T14:14:24.277Z,2.55
2022-10-19T14:19:41.173Z,1.77
2022-10-19T14:24:42.968Z,1.92
2022-10-19T14:29:48.435Z,1.27
2022-10-19T14:34:50.319Z,2.23
2022-10-19T14:40:26.699Z,1.42
2022-10-19T14:45:34.849Z,1.52
2022-10-19T14:51:00.206Z,1.48
2022-10-19T14:56:29.774Z,1.52
2022-10-19T15:01:42.586Z,1.75
2022-10-19T15:06:52.939Z,1.55
2022-10-19T15:12:10.766Z,2.45
2022-10-19T15:17:35.229Z,1.45
2022-10-19T15:22:49.697Z,1.55
2022-10-19T15:28:29.606Z,1.88
2022-10-19T15:34:12.723Z,1.80
2022-10-19T15:39:37.048Z,1.95
2022-10-19T15:44:57.269Z,2.13
2022-10-19T15:50:03.246Z,2.15
2022-10-19T15:55:05.122Z,1.38
2022-10-19T16:00:35.303Z,1.77
2022-10-19T16:06:04.727Z,1.95
2022-10-19T16:11:14.290Z,2.60
2022-10-19T16:16:28.285Z,2.28
2022-10-19T16:21:50.444Z,2.60
2022-10-19T16:27:01.161Z,2.30
2022-10-19T16:32:02.653Z,3.13
2022-10-19T16:37:08.108Z,3.67
2022-10-19T16:42:14.837Z,3.42
2022-10-19T16:47:17.060Z,4.15
2022-10-19T16:52:18.911Z,3.88
2022-10-19T16:57:21.475Z,3.50
2022-10-19T17:02:51.608Z,3.22
2022-10-19T17:07:58.478Z,3.22
2022-10-19T17:13:05.058Z,3.55
2022-10-19T17:23:09.564Z,4.25
2022-10-19T17:28:19.216Z,3.65
2022-10-19T17:33:21.805Z,3.60
2022-10-19T17:38:23.569Z,3.30
2022-10-19T17:43:35.944Z,3.42
2022-10-19T17:48:47.039Z,4.47
2022-10-19T17:54:14.283Z,5.30
2022-10-19T17:59:34.630Z,4.05
2022-10-19T18:04:57.358Z,4.07
2022-10-19T18:15:05.619Z,3.88
2022-10-19T18:20:20.723Z,3.83
2022-10-19T18:25:53.089Z,3.67
2022-10-19T18:31:03.127Z,3.60
2022-10-19T18:36:09.237Z,4.63
2022-10-19T18:46:13.717Z,4.15
2022-10-19T18:51:19.540Z,3.67
2022-10-19T18:56:29.096Z,4.50
2022-10-19T19:01:31.195Z,3.50
2022-10-19T19:06:44.622Z,3.28
2022-10-19T19:12:16.466Z,3.53
2022-10-19T19:17:12.390Z,4.20
2022-10-19T19:22:20.055Z,3.50
2022-10-19T19:27:31.600Z,4.60
2022-10-19T19:32:34.934Z,4.32
2022-10-19T19:37:37.001Z,3.72
2022-10-19T19:42:45.947Z,4.72
2022-10-19T19:47:52.914Z,4.50
2022-10-19T19:52:56.010Z,4.03
2022-10-19T19:57:57.578Z,4.05
2022-10-19T20:03:16.644Z,4.13
2022-10-19T20:08:19.462Z,3.53
2022-10-19T20:13:25.355Z,3.58
2022-10-19T20:18:32.843Z,3.10
2022-10-19T20:23:41.659Z,4.03
2022-10-19T20:28:47.765Z,5.07
2022-10-19T20:33:49.848Z,4.60
2022-10-19T20:38:57.972Z,3.72
2022-10-19T20:44:05.439Z,3.30
2022-10-19T20:49:11.259Z,4.10
2022-10-19T20:54:18.972Z,3.60
2022-10-19T20:59:27.805Z,4.82
2022-10-19T21:04:33.979Z,3.92
2022-10-19T21:09:41.589Z,4.50
2022-10-19T21:14:45.981Z,4.57
2022-10-19T21:19:49.039Z,4.82
2022-10-19T21:24:56.494Z,3.85
2022-10-19T21:30:01.022Z,3.60
2022-10-19T21:35:02.997Z,4.32
2022-10-19T21:40:09.709Z,4.85
2022-10-19T21:50:31.343Z,4.75
2022-10-19T21:55:35.857Z,10.02
2022-10-19T22:05:59.903Z,3.90
2022-10-19T22:11:12.128Z,5.90
2022-10-19T22:16:23.157Z,3.85
2022-10-19T22:21:30.191Z,3.60
2022-10-19T22:26:41.069Z,4.25
2022-10-19T22:31:43.178Z,4.80
2022-10-19T22:36:45.018Z,4.43
2022-10-19T22:42:44.711Z,4.10
2022-10-19T22:47:48.669Z,5.15
2022-10-19T22:52:50.200Z,4.95
2022-10-19T22:57:53.159Z,4.72
2022-10-19T23:02:57.559Z,4.85
2022-10-19T23:08:02.795Z,4.95
2022-10-19T23:13:20.135Z,4.95
2022-10-19T23:18:22.220Z,4.80
2022-10-19T23:23:30.975Z,4.47
2022-10-19T23:28:35.019Z,4.90
2022-10-19T23:33:39.415Z,4.47
2022-10-19T23:38:46.689Z,5.15
2022-10-19T23:43:48.318Z,3.92
2022-10-19T23:48:49.795Z,5.90
2022-10-19T23:53:53.191Z,5.68
2022-10-19T23:58:55.457Z,5.65
